Time;durP1;ratioP1;P1;durP2;ratioP2;P2;SDS_P1;SDS_P2;PMS_P1;PMS_P2;Temp;Humidity;BMP_temperature;BMP_pressure;BME280_temperature;BME280_humidity;BME280_pressure;Samples;Min_cycle;Max_cycle;Signal;HPM_P1;HPM_P2
2022/11/26 00:00:25;;;;;;;0.60;0.60;;;;;;;;;;5075911;28;20258;-83
2022/11/26 00:02:54;;;;;;;0.60;0.60;;;;;;;;;;5058762;28;20215;-83
2022/11/26 00:05:23;;;;;;;0.60;0.60;;;;;;;;;;5057718;28;20235;-83
2022/11/26 00:07:54;;;;;;;5.17;2.97;;;;;;;;;;5058035;28;20227;-83
2022/11/26 00:10:24;;;;;;;4.07;2.73;;;;;;;;;;5057780;28;20215;-83
2022/11/26 00:12:53;;;;;;;11.53;2.67;;;;;;;;;;5057829;28;20213;-83
2022/11/26 00:15:24;;;;;;;2.70;2.13;;;;;;;;;;5057628;28;20253;-83
2022/11/26 00:17:53;;;;;;;11.43;4.10;;;;;;;;;;5057886;28;20308;-83
2022/11/26 00:20:22;;;;;;;3.97;2.17;;;;;;;;;;5057647;28;20297;-83
2022/11/26 00:22:52;;;;;;;6.67;3.77;;;;;;;;;;5075759;28;20257;-83
2022/11/26 00:25:22;;;;;;;18.53;6.13;;;;;;;;;;5057959;28;20202;-82
2022/11/26 00:27:51;;;;;;;2.40;1.83;;;;;;;;;;5057975;28;20290;-83
2022/11/26 00:30:21;;;;;;;7.33;4.17;;;;;;;;;;5045382;28;20233;-83
2022/11/26 00:32:50;;;;;;;10.03;3.13;;;;;;;;;;5057596;28;20278;-83
2022/11/26 00:35:19;;;;;;;14.30;5.87;;;;;;;;;;5057861;28;20230;-82
2022/11/26 00:37:48;;;;;;;18.47;6.27;;;;;;;;;;5074925;28;20199;-82
2022/11/26 00:40:21;;;;;;;12.10;5.13;;;;;;;;;;5075218;28;20244;-83
2022/11/26 00:42:50;;;;;;;9.80;6.27;;;;;;;;;;5057641;28;20197;-83
2022/11/26 00:45:19;;;;;;;11.03;4.50;;;;;;;;;;5075441;28;20251;-82
2022/11/26 00:47:48;;;;;;;13.70;5.70;;;;;;;;;;5057611;28;20204;-82
2022/11/26 00:50:19;;;;;;;18.27;5.07;;;;;;;;;;5075027;28;20335;-83
2022/11/26 00:52:48;;;;;;;6.50;2.87;;;;;;;;;;5057441;28;20201;-83
2022/11/26 00:55:19;;;;;;;4.37;0.90;;;;;;;;;;5057035;28;20205;-83
2022/11/26 00:57:48;;;;;;;1.10;1.10;;;;;;;;;;5074506;28;20193;-83
2022/11/26 01:00:17;;;;;;;10.50;3.73;;;;;;;;;;5057060;28;20201;-83
2022/11/26 01:02:46;;;;;;;7.47;3.73;;;;;;;;;;5044571;28;20244;-82
2022/11/26 01:05:15;;;;;;;6.90;4.53;;;;;;;;;;5074461;28;20236;-83
2022/11/26 01:07:45;;;;;;;18.03;7.17;;;;;;;;;;5074722;28;20225;-83
2022/11/26 01:10:18;;;;;;;17.23;6.30;;;;;;;;;;5057016;28;20181;-83
2022/11/26 01:12:46;;;;;;;11.30;4.77;;;;;;;;;;5074634;28;20201;-83
2022/11/26 01:15:15;;;;;;;10.80;4.60;;;;;;;;;;5056715;28;20201;-83
2022/11/26 01:17:43;;;;;;;16.73;7.47;;;;;;;;;;5056680;28;20221;-83
2022/11/26 01:20:19;;;;;;;17.33;6.23;;;;;;;;;;5074015;28;20218;-83
2022/11/26 01:22:55;;;;;;;18.17;5.50;;;;;;;;;;5074390;28;20197;-83
2022/11/26 01:25:24;;;;;;;20.27;8.30;;;;;;;;;;5074371;28;20210;-83
2022/11/26 01:27:53;;;;;;;17.93;6.63;;;;;;;;;;5074457;28;20206;-82
2022/11/26 01:30:22;;;;;;;12.50;5.13;;;;;;;;;;5056731;28;20194;-83
2022/11/26 01:32:50;;;;;;;0.90;0.90;;;;;;;;;;5074187;28;20208;-82
2022/11/26 01:35:20;;;;;;;30.70;2.50;;;;;;;;;;5056400;28;20194;-83
2022/11/26 01:37:48;;;;;;;5.70;3.20;;;;;;;;;;5056295;28;20228;-83
2022/11/26 01:40:32;;;;;;;9.10;4.83;;;;;;;;;;5056463;28;20220;-83
2022/11/26 01:43:04;;;;;;;11.23;4.63;;;;;;;;;;5053823;28;20244;-83
2022/11/26 01:45:33;;;;;;;16.20;6.40;;;;;;;;;;5056483;28;20301;-83
2022/11/26 01:48:01;;;;;;;24.90;7.43;;;;;;;;;;5085722;28;20186;-83
2022/11/26 01:50:48;;;;;;;19.17;6.43;;;;;;;;;;5055526;28;20283;-83
2022/11/26 01:53:19;;;;;;;3.20;1.67;;;;;;;;;;5063925;28;20189;-82
2022/11/26 01:55:49;;;;;;;0.63;0.63;;;;;;;;;;5054946;28;20197;-83
2022/11/26 01:58:21;;;;;;;1.00;1.00;;;;;;;;;;5056305;28;20194;-83
2022/11/26 02:00:51;;;;;;;1.50;1.50;;;;;;;;;;5073774;28;20267;-83
2022/11/26 02:03:20;;;;;;;0.73;0.73;;;;;;;;;;5055979;28;20278;-83
2022/11/26 02:05:51;;;;;;;1.57;1.57;;;;;;;;;;5055722;28;20202;-83
2022/11/26 02:08:20;;;;;;;0.60;0.60;;;;;;;;;;5055796;28;20204;-83
2022/11/26 02:10:51;;;;;;;0.60;0.60;;;;;;;;;;5079064;28;20277;-82
2022/11/26 02:13:22;;;;;;;1.33;1.33;;;;;;;;;;5050539;28;20269;-83
2022/11/26 02:15:55;;;;;;;10.53;4.27;;;;;;;;;;5053054;28;20241;-83
2022/11/26 02:18:27;;;;;;;0.93;0.93;;;;;;;;;;5055888;28;20212;-83
2022/11/26 02:21:00;;;;;;;2.50;2.37;;;;;;;;;;5055715;28;20217;-83
2022/11/26 02:23:46;;;;;;;0.83;0.83;;;;;;;;;;5055645;28;20208;-82
2022/11/26 02:26:38;;;;;;;0.70;0.70;;;;;;;;;;5073543;28;20203;-82
2022/11/26 02:29:22;;;;;;;1.23;1.23;;;;;;;;;;5073204;28;20216;-83
2022/11/26 02:31:54;;;;;;;14.70;5.73;;;;;;;;;;5071896;28;20197;-83
2022/11/26 02:34:25;;;;;;;14.33;5.53;;;;;;;;;;5055632;28;20272;-83
2022/11/26 02:36:56;;;;;;;19.40;6.47;;;;;;;;;;5055580;28;20243;-82
2022/11/26 02:39:25;;;;;;;12.87;5.37;;;;;;;;;;5073057;28;20193;-83
2022/11/26 02:41:54;;;;;;;18.37;5.80;;;;;;;;;;5055649;28;20217;-82
2022/11/26 02:44:24;;;;;;;15.20;4.27;;;;;;;;;;5073222;28;20205;-83
2022/11/26 02:46:57;;;;;;;14.53;5.83;;;;;;;;;;5055674;28;20212;-83
2022/11/26 02:49:26;;;;;;;14.63;7.00;;;;;;;;;;5073049;28;20201;-82
2022/11/26 02:51:57;;;;;;;26.17;6.73;;;;;;;;;;5055787;28;20194;-82
2022/11/26 02:54:26;;;;;;;14.73;5.13;;;;;;;;;;5055670;28;20209;-83
2022/11/26 02:56:55;;;;;;;12.10;5.13;;;;;;;;;;5055539;28;20205;-83
2022/11/26 02:59:23;;;;;;;15.27;5.27;;;;;;;;;;5055340;28;20228;-82
2022/11/26 03:01:56;;;;;;;15.50;6.07;;;;;;;;;;5057979;28;20225;-83
2022/11/26 03:04:26;;;;;;;12.90;5.00;;;;;;;;;;5076900;28;20282;-83
2022/11/26 03:06:56;;;;;;;13.43;4.23;;;;;;;;;;5059123;28;20288;-83
2022/11/26 03:09:24;;;;;;;23.53;5.87;;;;;;;;;;5076816;28;20197;-83
2022/11/26 03:11:53;;;;;;;26.33;6.83;;;;;;;;;;5058789;28;20544;-83
2022/11/26 03:14:21;;;;;;;5.40;2.97;;;;;;;;;;5059093;28;20272;-83
2022/11/26 03:16:49;;;;;;;22.50;6.87;;;;;;;;;;5058953;28;20296;-83
2022/11/26 03:19:19;;;;;;;19.73;6.93;;;;;;;;;;5076745;28;20201;-83
2022/11/26 03:21:48;;;;;;;9.37;3.90;;;;;;;;;;5058940;28;20229;-83
2022/11/26 03:24:16;;;;;;;7.50;3.60;;;;;;;;;;5076421;28;20198;-82
2022/11/26 03:26:45;;;;;;;25.83;6.27;;;;;;;;;;5058856;28;20230;-83
2022/11/26 03:29:13;;;;;;;19.47;6.73;;;;;;;;;;5058849;28;20236;-83
2022/11/26 03:31:41;;;;;;;14.97;6.70;;;;;;;;;;5058613;28;20194;-83
2022/11/26 03:34:10;;;;;;;23.37;7.60;;;;;;;;;;5076363;28;20236;-82
2022/11/26 03:36:40;;;;;;;15.90;6.50;;;;;;;;;;5076244;28;20207;-83
2022/11/26 03:39:08;;;;;;;22.67;8.03;;;;;;;;;;5058847;28;20190;-82
2022/11/26 03:41:36;;;;;;;12.70;5.30;;;;;;;;;;5058368;28;20284;-82
2022/11/26 03:44:05;;;;;;;23.53;5.77;;;;;;;;;;5058611;28;20243;-82
2022/11/26 03:46:33;;;;;;;17.33;7.37;;;;;;;;;;5058541;28;20198;-83
2022/11/26 03:49:02;;;;;;;20.77;6.67;;;;;;;;;;5076345;28;20225;-83
2022/11/26 03:51:30;;;;;;;15.87;4.37;;;;;;;;;;5058422;28;20255;-82
2022/11/26 03:54:00;;;;;;;17.67;7.07;;;;;;;;;;5056872;28;20319;-83
2022/11/26 03:56:28;;;;;;;11.33;5.50;;;;;;;;;;5058112;28;20271;-82
2022/11/26 03:58:57;;;;;;;15.57;4.60;;;;;;;;;;5057965;28;20285;-82
2022/11/26 04:01:25;;;;;;;23.20;6.77;;;;;;;;;;5058165;28;20290;-83
2022/11/26 04:03:54;;;;;;;19.70;6.73;;;;;;;;;;5058071;28;20243;-82
2022/11/26 04:06:22;;;;;;;16.20;5.37;;;;;;;;;;5075827;28;20206;-82
2022/11/26 04:08:50;;;;;;;15.70;5.47;;;;;;;;;;5058458;28;20210;-83
2022/11/26 04:11:20;;;;;;;29.37;6.73;;;;;;;;;;5058246;28;20265;-83
2022/11/26 04:13:48;;;;;;;13.87;5.47;;;;;;;;;;5057229;28;20233;-83
2022/11/26 04:16:17;;;;;;;13.73;4.73;;;;;;;;;;5057818;28;20260;-83
2022/11/26 04:18:45;;;;;;;12.93;5.13;;;;;;;;;;5058051;28;20300;-83
2022/11/26 04:21:14;;;;;;;18.87;5.13;;;;;;;;;;5058196;28;20190;-83
2022/11/26 04:23:42;;;;;;;11.07;2.53;;;;;;;;;;5075935;28;20197;-82
2022/11/26 04:26:11;;;;;;;1.47;1.47;;;;;;;;;;5057783;28;20209;-83
2022/11/26 04:28:40;;;;;;;5.10;1.07;;;;;;;;;;5057509;28;20254;-83
2022/11/26 04:31:09;;;;;;;0.63;0.63;;;;;;;;;;5057875;28;20232;-81
2022/11/26 04:33:37;;;;;;;10.50;4.60;;;;;;;;;;5057676;28;20198;-81
2022/11/26 04:36:06;;;;;;;10.63;3.20;;;;;;;;;;5057743;28;20202;-81
2022/11/26 04:38:35;;;;;;;12.03;3.80;;;;;;;;;;5057236;28;20259;-81
2022/11/26 04:41:03;;;;;;;8.90;3.57;;;;;;;;;;5057497;28;20197;-81
2022/11/26 04:43:31;;;;;;;23.40;5.67;;;;;;;;;;5056703;28;20270;-81
2022/11/26 04:46:01;;;;;;;16.60;4.77;;;;;;;;;;5075189;28;20213;-81
2022/11/26 04:48:30;;;;;;;12.07;4.83;;;;;;;;;;5057233;28;20213;-82
2022/11/26 04:50:58;;;;;;;3.87;2.10;;;;;;;;;;5057773;28;20194;-82
2022/11/26 04:53:26;;;;;;;20.60;5.23;;;;;;;;;;5057657;28;20220;-82
2022/11/26 04:55:55;;;;;;;7.63;3.70;;;;;;;;;;5057144;28;20193;-82
2022/11/26 04:58:23;;;;;;;13.77;5.37;;;;;;;;;;5056715;28;20194;-82
2022/11/26 05:00:52;;;;;;;4.60;2.47;;;;;;;;;;5057086;28;20204;-81
2022/11/26 05:03:22;;;;;;;18.90;6.00;;;;;;;;;;5074093;28;20256;-81
2022/11/26 05:05:50;;;;;;;16.93;5.53;;;;;;;;;;5074804;28;20215;-81
2022/11/26 05:08:19;;;;;;;17.40;6.13;;;;;;;;;;5057245;28;20194;-82
2022/11/26 05:10:47;;;;;;;21.30;6.70;;;;;;;;;;5056924;28;20209;-82
2022/11/26 05:13:15;;;;;;;15.83;6.53;;;;;;;;;;5057303;28;20247;-81
2022/11/26 05:15:44;;;;;;;14.87;6.13;;;;;;;;;;5074373;28;20227;-82
2022/11/26 05:18:12;;;;;;;22.23;7.40;;;;;;;;;;5057046;28;20194;-82
2022/11/26 05:20:42;;;;;;;16.50;10.03;;;;;;;;;;5056258;28;20200;-81
2022/11/26 05:23:10;;;;;;;18.27;7.20;;;;;;;;;;5074154;28;20275;-81
2022/11/26 05:25:39;;;;;;;21.30;8.17;;;;;;;;;;5056363;28;20347;-81
2022/11/26 05:28:07;;;;;;;19.03;9.73;;;;;;;;;;5056504;28;20220;-81
2022/11/26 05:30:36;;;;;;;19.47;7.93;;;;;;;;;;5074741;28;20201;-81
2022/11/26 05:33:04;;;;;;;25.83;8.30;;;;;;;;;;5056982;28;20201;-81
2022/11/26 05:35:32;;;;;;;20.13;7.17;;;;;;;;;;5056197;28;20237;-81
2022/11/26 05:38:02;;;;;;;19.67;8.23;;;;;;;;;;5074113;28;20198;-81
2022/11/26 05:40:30;;;;;;;20.30;9.50;;;;;;;;;;5056195;28;20198;-81
2022/11/26 05:42:59;;;;;;;18.53;7.60;;;;;;;;;;5056450;28;20209;-81
2022/11/26 05:45:27;;;;;;;13.43;5.93;;;;;;;;;;5056135;28;20202;-81
2022/11/26 05:47:56;;;;;;;15.47;7.23;;;;;;;;;;5073830;28;20197;-81
2022/11/26 05:50:24;;;;;;;14.63;8.00;;;;;;;;;;5044042;28;20224;-81
2022/11/26 05:52:53;;;;;;;20.00;6.70;;;;;;;;;;5056039;28;20198;-81
2022/11/26 05:55:22;;;;;;;16.03;7.33;;;;;;;;;;5056409;28;20201;-81
2022/11/26 05:57:51;;;;;;;20.90;6.93;;;;;;;;;;5056001;28;20288;-81
2022/11/26 06:00:19;;;;;;;14.27;6.17;;;;;;;;;;5056191;28;20185;-81
2022/11/26 06:02:48;;;;;;;14.87;7.07;;;;;;;;;;5055516;28;20221;-81
2022/11/26 06:05:16;;;;;;;13.23;7.13;;;;;;;;;;5055983;28;20209;-81
2022/11/26 06:07:45;;;;;;;13.50;7.90;;;;;;;;;;5056122;28;20205;-81
2022/11/26 06:10:14;;;;;;;20.63;9.27;;;;;;;;;;5056073;28;20251;-81
2022/11/26 06:12:44;;;;;;;18.20;9.23;;;;;;;;;;5055578;28;20198;-81
2022/11/26 06:15:12;;;;;;;23.60;8.50;;;;;;;;;;5055727;28;20218;-81
2022/11/26 06:17:40;;;;;;;16.63;7.73;;;;;;;;;;5073265;28;20233;-81
2022/11/26 06:20:09;;;;;;;18.13;8.77;;;;;;;;;;5056136;28;20205;-82
2022/11/26 06:22:38;;;;;;;15.83;7.07;;;;;;;;;;5055439;28;20209;-82
2022/11/26 06:25:07;;;;;;;14.67;7.17;;;;;;;;;;5055636;28;20220;-81
2022/11/26 06:27:37;;;;;;;22.30;9.17;;;;;;;;;;5073410;28;20206;-82
2022/11/26 06:30:08;;;;;;;9.93;6.63;;;;;;;;;;5055843;28;20201;-81
2022/11/26 06:32:36;;;;;;;20.50;7.50;;;;;;;;;;5042800;28;20214;-81
2022/11/26 06:35:05;;;;;;;26.27;10.97;;;;;;;;;;5055162;28;20229;-81
2022/11/26 06:37:33;;;;;;;11.60;6.73;;;;;;;;;;5073179;28;20220;-81
2022/11/26 06:40:02;;;;;;;6.50;3.73;;;;;;;;;;5055337;28;20205;-81
2022/11/26 06:42:30;;;;;;;4.63;2.80;;;;;;;;;;5055569;28;20201;-81
2022/11/26 06:44:59;;;;;;;1.40;1.37;;;;;;;;;;5055424;28;20193;-81
2022/11/26 06:47:29;;;;;;;0.60;0.60;;;;;;;;;;5055330;28;20221;-81
2022/11/26 06:49:57;;;;;;;7.70;4.60;;;;;;;;;;5055249;28;20237;-81
2022/11/26 06:52:25;;;;;;;20.50;9.33;;;;;;;;;;5055271;28;20205;-81
2022/11/26 06:54:54;;;;;;;10.10;5.33;;;;;;;;;;5055709;28;20201;-81
2022/11/26 06:57:22;;;;;;;17.37;6.63;;;;;;;;;;5055028;28;20193;-81
2022/11/26 06:59:52;;;;;;;16.50;9.57;;;;;;;;;;5073417;28;20251;-81
2022/11/26 07:02:20;;;;;;;22.60;10.17;;;;;;;;;;5055228;28;20255;-81
2022/11/26 07:04:50;;;;;;;17.53;9.70;;;;;;;;;;5055100;28;20225;-81
2022/11/26 07:07:18;;;;;;;17.53;10.13;;;;;;;;;;5055299;28;20213;-81
2022/11/26 07:09:47;;;;;;;22.57;12.73;;;;;;;;;;5073003;28;20272;-81
2022/11/26 07:12:15;;;;;;;19.00;10.80;;;;;;;;;;5055550;28;20198;-81
2022/11/26 07:14:44;;;;;;;25.27;11.17;;;;;;;;;;5060288;28;20232;-81
2022/11/26 07:17:12;;;;;;;23.63;11.43;;;;;;;;;;5072978;28;20241;-81
2022/11/26 07:19:40;;;;;;;21.57;10.87;;;;;;;;;;5055372;28;20212;-81
2022/11/26 07:22:10;;;;;;;23.67;11.47;;;;;;;;;;5055324;28;20205;-81
2022/11/26 07:24:39;;;;;;;23.13;10.53;;;;;;;;;;5055379;28;20213;-81
2022/11/26 07:27:08;;;;;;;24.33;12.70;;;;;;;;;;5055278;28;20201;-82
2022/11/26 07:29:37;;;;;;;27.07;11.90;;;;;;;;;;5054933;28;20197;-82
2022/11/26 07:32:05;;;;;;;24.63;11.27;;;;;;;;;;5055478;28;20264;-82
2022/11/26 07:34:34;;;;;;;22.60;10.73;;;;;;;;;;5045893;28;20214;-81
2022/11/26 07:37:02;;;;;;;21.47;12.93;;;;;;;;;;5069475;28;20201;-82
2022/11/26 07:39:32;;;;;;;20.77;10.50;;;;;;;;;;5072913;28;20229;-81
2022/11/26 07:42:00;;;;;;;30.37;9.07;;;;;;;;;;5054858;28;20247;-82
2022/11/26 07:44:28;;;;;;;25.90;13.13;;;;;;;;;;5054812;28;20281;-82
2022/11/26 07:46:57;;;;;;;22.77;14.63;;;;;;;;;;5054842;28;20221;-82
2022/11/26 07:49:25;;;;;;;23.53;10.53;;;;;;;;;;5058434;28;20254;-81
2022/11/26 07:51:53;;;;;;;28.77;13.67;;;;;;;;;;5058497;28;20247;-82
2022/11/26 07:54:22;;;;;;;19.63;10.20;;;;;;;;;;5058685;28;20186;-82
2022/11/26 07:56:52;;;;;;;15.40;10.43;;;;;;;;;;5091891;28;20219;-82
2022/11/26 07:59:21;;;;;;;26.07;13.13;;;;;;;;;;5075867;28;20197;-82
2022/11/26 08:01:49;;;;;;;26.23;12.03;;;;;;;;;;5046030;28;20219;-82
2022/11/26 08:04:18;;;;;;;19.07;10.20;;;;;;;;;;5075399;28;20225;-82
2022/11/26 08:06:46;;;;;;;21.70;11.63;;;;;;;;;;5058584;28;20194;-81
2022/11/26 08:09:14;;;;;;;22.73;13.30;;;;;;;;;;5075520;28;20206;-82
2022/11/26 08:11:43;;;;;;;19.07;11.57;;;;;;;;;;5058243;28;20236;-82
2022/11/26 08:14:13;;;;;;;24.10;11.70;;;;;;;;;;5055795;28;20223;-82
2022/11/26 08:16:41;;;;;;;25.17;11.10;;;;;;;;;;5064869;28;20306;-82
2022/11/26 08:19:13;;;;;;;20.53;10.27;;;;;;;;;;5058080;28;20256;-81
2022/11/26 08:21:42;;;;;;;27.60;12.23;;;;;;;;;;5057834;28;20197;-82
2022/11/26 08:24:14;;;;;;;18.77;8.70;;;;;;;;;;5075585;28;20303;-82
2022/11/26 08:26:42;;;;;;;30.17;9.77;;;;;;;;;;5057697;28;20194;-82
2022/11/26 08:29:13;;;;;;;17.67;9.40;;;;;;;;;;5075742;28;20198;-82
2022/11/26 08:31:42;;;;;;;23.90;10.13;;;;;;;;;;5075610;28;20255;-82
2022/11/26 08:34:14;;;;;;;24.33;10.87;;;;;;;;;;5045326;28;20194;-82
2022/11/26 08:36:43;;;;;;;17.53;9.70;;;;;;;;;;5057482;28;20194;-82
2022/11/26 08:39:13;;;;;;;18.50;10.00;;;;;;;;;;5057857;28;20205;-81
2022/11/26 08:41:41;;;;;;;22.70;11.97;;;;;;;;;;5075559;28;20205;-82
2022/11/26 08:44:19;;;;;;;20.80;8.37;;;;;;;;;;5075070;28;20209;-82
2022/11/26 08:46:47;;;;;;;21.10;10.57;;;;;;;;;;5057462;28;20201;-81
2022/11/26 08:49:16;;;;;;;23.27;9.70;;;;;;;;;;5057732;28;20201;-82
2022/11/26 08:51:44;;;;;;;28.17;13.03;;;;;;;;;;5075181;28;20192;-82
2022/11/26 08:54:13;;;;;;;24.53;10.63;;;;;;;;;;5057096;28;20193;-82
2022/11/26 08:56:41;;;;;;;3.93;3.53;;;;;;;;;;5057313;28;20288;-82
2022/11/26 08:59:09;;;;;;;17.27;9.70;;;;;;;;;;5074481;28;20217;-82
2022/11/26 09:01:39;;;;;;;28.37;13.27;;;;;;;;;;5057379;28;20208;-82
2022/11/26 09:04:08;;;;;;;22.07;11.30;;;;;;;;;;5056820;28;20232;-82
2022/11/26 09:06:36;;;;;;;28.23;12.17;;;;;;;;;;5057192;28;20229;-81
2022/11/26 09:09:16;;;;;;;20.50;11.53;;;;;;;;;;5074883;28;20235;-82
2022/11/26 09:11:46;;;;;;;26.57;12.37;;;;;;;;;;5046152;28;20209;-82
2022/11/26 09:14:15;;;;;;;23.90;12.37;;;;;;;;;;5074490;28;20197;-82
2022/11/26 09:16:45;;;;;;;24.40;9.67;;;;;;;;;;5053332;28;20226;-82
2022/11/26 09:19:14;;;;;;;18.17;11.80;;;;;;;;;;5053434;28;20198;-82
2022/11/26 09:21:43;;;;;;;21.60;14.00;;;;;;;;;;5053563;28;20205;-82
2022/11/26 09:24:12;;;;;;;24.27;12.93;;;;;;;;;;5054464;28;20287;-82
2022/11/26 09:26:40;;;;;;;23.30;12.23;;;;;;;;;;5053223;28;20194;-81
2022/11/26 09:29:08;;;;;;;29.37;14.83;;;;;;;;;;5053510;28;20286;-81
2022/11/26 09:31:37;;;;;;;23.63;12.57;;;;;;;;;;5054236;28;20207;-81
2022/11/26 09:34:27;;;;;;;26.43;13.83;;;;;;;;;;5042683;28;20325;-81
2022/11/26 09:36:57;;;;;;;26.83;13.90;;;;;;;;;;5053158;28;20199;-81
2022/11/26 09:39:26;;;;;;;19.17;11.43;;;;;;;;;;5053222;28;20225;-81
2022/11/26 09:41:57;;;;;;;21.83;13.27;;;;;;;;;;5054148;28;20198;-82
2022/11/26 09:44:29;;;;;;;24.07;11.40;;;;;;;;;;5053878;28;20206;-82
2022/11/26 09:47:02;;;;;;;26.17;11.07;;;;;;;;;;5053081;28;20210;-82
2022/11/26 09:49:44;;;;;;;18.17;9.70;;;;;;;;;;5053635;28;20194;-81
2022/11/26 09:52:14;;;;;;;19.43;11.67;;;;;;;;;;5053821;28;20222;-81
2022/11/26 09:54:42;;;;;;;28.00;13.77;;;;;;;;;;5052818;28;20194;-82
2022/11/26 09:57:18;;;;;;;15.43;10.03;;;;;;;;;;5053867;28;20241;-81
2022/11/26 09:59:46;;;;;;;21.73;13.10;;;;;;;;;;5052322;28;20229;-82
2022/11/26 10:02:15;;;;;;;20.40;10.63;;;;;;;;;;5054119;28;20194;-82
2022/11/26 10:04:45;;;;;;;22.77;10.43;;;;;;;;;;5052323;28;20233;-82
2022/11/26 10:07:21;;;;;;;22.60;12.63;;;;;;;;;;5053002;28;20207;-82
2022/11/26 10:09:54;;;;;;;20.87;8.87;;;;;;;;;;5051954;28;20207;-82
2022/11/26 10:12:27;;;;;;;24.87;10.67;;;;;;;;;;5052036;28;20208;-82
2022/11/26 10:14:58;;;;;;;21.40;11.13;;;;;;;;;;5052753;28;20281;-82
2022/11/26 10:17:30;;;;;;;24.57;12.57;;;;;;;;;;5052211;28;20284;-82
2022/11/26 10:20:05;;;;;;;22.93;9.47;;;;;;;;;;5052300;28;20203;-82
2022/11/26 10:22:35;;;;;;;22.90;10.90;;;;;;;;;;5053433;28;20229;-82
2022/11/26 10:25:14;;;;;;;22.30;8.27;;;;;;;;;;5052208;28;20211;-82
2022/11/26 10:27:42;;;;;;;17.23;10.20;;;;;;;;;;5053811;28;20246;-81
2022/11/26 10:30:18;;;;;;;17.90;10.53;;;;;;;;;;5052181;28;20211;-82
2022/11/26 10:32:47;;;;;;;17.50;11.33;;;;;;;;;;5053351;28;20204;-82
2022/11/26 10:35:18;;;;;;;14.50;9.17;;;;;;;;;;5052194;28;20291;-82
2022/11/26 10:37:46;;;;;;;17.23;10.63;;;;;;;;;;5052589;28;20257;-82
2022/11/26 10:40:19;;;;;;;13.73;8.73;;;;;;;;;;5051853;28;20193;-82
2022/11/26 10:42:52;;;;;;;18.03;7.13;;;;;;;;;;5053380;28;20203;-81
2022/11/26 10:45:22;;;;;;;14.37;8.37;;;;;;;;;;5051480;28;20205;-82
2022/11/26 10:47:51;;;;;;;19.87;11.27;;;;;;;;;;5054016;28;20200;-82
2022/11/26 10:50:22;;;;;;;16.17;7.87;;;;;;;;;;5052372;28;20238;-82
2022/11/26 10:53:20;;;;;;;16.93;9.20;;;;;;;;;;5051872;28;20209;-82
2022/11/26 10:55:48;;;;;;;10.70;6.53;;;;;;;;;;5052244;28;20196;-81
2022/11/26 10:58:18;;;;;;;14.07;9.13;;;;;;;;;;5053244;28;20258;-82
2022/11/26 11:00:54;;;;;;;17.27;10.67;;;;;;;;;;5053176;28;20221;-82
2022/11/26 11:03:24;;;;;;;20.27;10.00;;;;;;;;;;5051034;28;20261;-82
2022/11/26 11:06:25;;;;;;;17.77;10.53;;;;;;;;;;5051974;28;20216;-82
2022/11/26 11:08:53;;;;;;;14.23;8.00;;;;;;;;;;5052224;28;20196;-82
2022/11/26 11:11:23;;;;;;;15.27;8.97;;;;;;;;;;5052924;28;20197;-82
2022/11/26 11:13:51;;;;;;;4.83;3.00;;;;;;;;;;5052058;28;20201;-82
2022/11/26 11:16:22;;;;;;;14.50;8.33;;;;;;;;;;5056775;28;20235;-82
2022/11/26 11:18:52;;;;;;;19.30;10.50;;;;;;;;;;5055122;28;20231;-82
2022/11/26 11:21:22;;;;;;;18.97;9.60;;;;;;;;;;5055677;28;20288;-82
2022/11/26 11:23:50;;;;;;;25.33;10.67;;;;;;;;;;5059305;28;20264;-82
2022/11/26 11:26:40;;;;;;;13.10;7.13;;;;;;;;;;5058668;28;20227;-82
2022/11/26 11:29:23;;;;;;;20.30;9.20;;;;;;;;;;5058778;28;20245;-82
2022/11/26 11:31:51;;;;;;;5.03;3.73;;;;;;;;;;5058849;28;20211;-83
2022/11/26 11:34:21;;;;;;;16.23;8.40;;;;;;;;;;5047466;28;20262;-83
2022/11/26 11:37:01;;;;;;;20.87;9.37;;;;;;;;;;5058562;28;20239;-82
2022/11/26 11:39:34;;;;;;;5.57;4.37;;;;;;;;;;5053548;28;20203;-83
2022/11/26 11:42:03;;;;;;;6.97;4.03;;;;;;;;;;5065738;28;20270;-83
2022/11/26 11:44:37;;;;;;;15.27;6.70;;;;;;;;;;5056414;28;20201;-84
2022/11/26 11:47:24;;;;;;;16.43;8.93;;;;;;;;;;5072256;28;20222;-86
2022/11/26 11:50:00;;;;;;;15.93;9.90;;;;;;;;;;5074156;28;20222;-88
2022/11/26 11:52:35;;;;;;;12.70;7.80;;;;;;;;;;5056379;28;20207;-88
2022/11/26 11:55:09;;;;;;;13.30;9.30;;;;;;;;;;5076631;28;20229;-88
2022/11/26 11:57:46;;;;;;;1.47;1.40;;;;;;;;;;5059700;28;20204;-87
2022/11/26 12:00:17;;;;;;;15.43;7.77;;;;;;;;;;5044350;28;20204;-88
2022/11/26 12:03:03;;;;;;;15.80;9.00;;;;;;;;;;5048462;28;20205;-87
2022/11/26 12:05:36;;;;;;;14.97;7.23;;;;;;;;;;5075199;28;20219;-87
2022/11/26 12:08:12;;;;;;;17.70;9.53;;;;;;;;;;5052635;28;20201;-87
2022/11/26 12:10:45;;;;;;;6.00;4.73;;;;;;;;;;5067996;28;20204;-86
2022/11/26 12:13:14;;;;;;;15.47;6.27;;;;;;;;;;5055637;28;20239;-87
2022/11/26 12:15:47;;;;;;;14.87;7.67;;;;;;;;;;5054219;28;20213;-88
2022/11/26 12:18:20;;;;;;;15.07;6.70;;;;;;;;;;5053141;28;20286;-87
2022/11/26 12:20:51;;;;;;;15.93;9.17;;;;;;;;;;5050531;28;20195;-86
2022/11/26 12:23:27;;;;;;;19.17;10.20;;;;;;;;;;5052444;28;20223;-88
2022/11/26 12:25:59;;;;;;;14.43;7.40;;;;;;;;;;5054053;28;20228;-87
2022/11/26 12:28:28;;;;;;;14.13;9.60;;;;;;;;;;5053766;28;20259;-85
2022/11/26 12:31:00;;;;;;;19.90;7.17;;;;;;;;;;5073142;28;20204;-86
2022/11/26 12:33:32;;;;;;;18.27;7.83;;;;;;;;;;5048647;28;20243;-86
2022/11/26 12:36:04;;;;;;;9.93;4.90;;;;;;;;;;5054107;28;20211;-86
2022/11/26 12:38:36;;;;;;;11.13;4.53;;;;;;;;;;5070038;28;20205;-86
2022/11/26 12:41:07;;;;;;;6.43;3.40;;;;;;;;;;5059116;28;20207;-87
2022/11/26 12:43:41;;;;;;;16.80;6.23;;;;;;;;;;5053554;28;20196;-87
2022/11/26 12:46:11;;;;;;;5.40;3.53;;;;;;;;;;5059518;28;20232;-86
2022/11/26 12:48:44;;;;;;;15.97;6.10;;;;;;;;;;5045328;28;20198;-87
2022/11/26 12:51:22;;;;;;;4.97;3.47;;;;;;;;;;5061456;28;20253;-89
2022/11/26 12:53:54;;;;;;;10.33;5.93;;;;;;;;;;5052647;28;20200;-86
2022/11/26 12:56:27;;;;;;;4.00;3.70;;;;;;;;;;5058598;28;20208;-88
2022/11/26 12:58:59;;;;;;;3.17;2.17;;;;;;;;;;5056047;28;20273;-89
2022/11/26 13:01:28;;;;;;;8.20;2.57;;;;;;;;;;5045966;28;20235;-87
2022/11/26 13:03:59;;;;;;;9.03;5.40;;;;;;;;;;5050749;28;20225;-89
2022/11/26 13:06:57;;;;;;;15.90;4.47;;;;;;;;;;5055520;28;20217;-88
2022/11/26 13:09:31;;;;;;;17.13;6.30;;;;;;;;;;5048452;28;20204;-86
2022/11/26 13:12:04;;;;;;;16.37;5.17;;;;;;;;;;5064536;28;20205;-84
2022/11/26 13:14:36;;;;;;;14.30;5.70;;;;;;;;;;5051251;28;20204;-86
2022/11/26 13:17:10;;;;;;;18.87;8.17;;;;;;;;;;5062943;28;20238;-86
2022/11/26 13:19:42;;;;;;;20.60;8.23;;;;;;;;;;5085750;28;20285;-87
2022/11/26 13:22:19;;;;;;;13.30;6.50;;;;;;;;;;5060024;28;20199;-87
2022/11/26 13:24:53;;;;;;;11.03;6.80;;;;;;;;;;5051274;28;20240;-87
2022/11/26 13:27:39;;;;;;;15.37;7.77;;;;;;;;;;5065841;28;20234;-85
2022/11/26 13:30:13;;;;;;;4.13;2.27;;;;;;;;;;5074087;28;20202;-86
2022/11/26 13:33:01;;;;;;;2.23;2.13;;;;;;;;;;5066659;28;20200;-87
2022/11/26 13:35:38;;;;;;;7.37;2.80;;;;;;;;;;5073924;28;20233;-85
2022/11/26 13:38:17;;;;;;;14.70;7.37;;;;;;;;;;5062789;28;20243;-84
2022/11/26 13:40:56;;;;;;;11.00;4.03;;;;;;;;;;5052786;28;20210;-86
2022/11/26 13:43:48;;;;;;;14.97;5.73;;;;;;;;;;5046940;28;20228;-85
2022/11/26 13:46:19;;;;;;;9.40;5.50;;;;;;;;;;5055244;28;20205;-88
2022/11/26 13:48:55;;;;;;;14.57;7.67;;;;;;;;;;5049407;28;20224;-85
2022/11/26 13:51:27;;;;;;;15.83;5.87;;;;;;;;;;5065062;28;20266;-87
2022/11/26 13:53:57;;;;;;;15.20;7.07;;;;;;;;;;5042707;28;20209;-86
2022/11/26 13:56:30;;;;;;;16.57;5.40;;;;;;;;;;5047020;28;20209;-86
2022/11/26 13:59:01;;;;;;;7.77;4.57;;;;;;;;;;5065742;28;20218;-86
2022/11/26 14:01:31;;;;;;;10.63;4.77;;;;;;;;;;5054502;28;20189;-84
2022/11/26 14:04:02;;;;;;;14.17;7.80;;;;;;;;;;5056529;28;20241;-84
2022/11/26 14:06:30;;;;;;;13.93;4.57;;;;;;;;;;5064799;28;20214;-87
2022/11/26 14:08:59;;;;;;;9.00;4.23;;;;;;;;;;5068496;28;20198;-84
2022/11/26 14:11:49;;;;;;;4.37;2.47;;;;;;;;;;5061096;28;20228;-86
2022/11/26 14:14:36;;;;;;;10.63;5.37;;;;;;;;;;5051594;28;20252;-85
2022/11/26 14:17:14;;;;;;;11.33;5.30;;;;;;;;;;5062399;28;20248;-85
2022/11/26 14:19:58;;;;;;;7.80;4.83;;;;;;;;;;5048129;28;20194;-86
2022/11/26 14:22:28;;;;;;;20.97;7.70;;;;;;;;;;5050457;28;20210;-86
2022/11/26 14:24:58;;;;;;;23.20;5.57;;;;;;;;;;5045078;28;20194;-85
2022/11/26 14:27:28;;;;;;;9.90;5.23;;;;;;;;;;5043093;28;20263;-84
2022/11/26 14:29:59;;;;;;;14.30;3.43;;;;;;;;;;5050536;28;20200;-85
2022/11/26 14:32:30;;;;;;;9.57;4.67;;;;;;;;;;5048383;28;20203;-85
2022/11/26 14:34:59;;;;;;;24.67;6.87;;;;;;;;;;5049011;28;20197;-85
2022/11/26 14:37:30;;;;;;;5.60;4.07;;;;;;;;;;5048230;28;20215;-86
2022/11/26 14:39:59;;;;;;;1.67;1.57;;;;;;;;;;5053367;28;20206;-85
2022/11/26 14:42:28;;;;;;;23.00;6.13;;;;;;;;;;5047006;28;20209;-87
2022/11/26 14:45:07;;;;;;;12.00;6.07;;;;;;;;;;5051111;28;20193;-87
2022/11/26 14:47:37;;;;;;;3.33;2.20;;;;;;;;;;5064378;28;20220;-88
2022/11/26 14:50:07;;;;;;;12.70;4.13;;;;;;;;;;5068916;28;20199;-88
2022/11/26 14:52:37;;;;;;;12.97;4.63;;;;;;;;;;5064287;28;20197;-86